Time,TemperatureF,DewpointF,PressureIn,WindDirection,WindDirectionDegrees,WindSpeedMPH,WindSpeedGustMPH,Humidity,HourlyPrecipIn,Conditions,Clouds,dailyrainin,SoftwareType,DateUTC
2013-05-11 00:02:00,48.0,36.0,-100.00,ESE,105,3.0,4.0,64,-99.99,,,-99.99,,2013-05-11 06:02:00,
2013-05-11 00:12:00,47.0,36.0,-100.00,East,90,2.0,4.0,65,-99.99,,,-99.99,,2013-05-11 06:12:00,
2013-05-11 00:21:00,47.0,36.0,-100.00,East,95,1.0,2.0,65,-99.99,,,-99.99,,2013-05-11 06:21:00,
2013-05-11 00:32:00,46.0,35.0,-100.00,ENE,65,2.0,2.0,65,-99.99,,,-99.99,,2013-05-11 06:32:00,
2013-05-11 00:42:00,45.0,34.0,-100.00,NE,45,1.0,2.0,65,-99.99,,,-99.99,,2013-05-11 06:42:00,
2013-05-11 00:52:00,45.0,35.0,-100.00,ESE,110,2.0,2.0,67,-99.99,,,-99.99,,2013-05-11 06:52:00,
2013-05-11 01:01:00,45.0,36.0,-100.00,ESE,110,0.0,2.0,70,-99.99,,,-99.99,,2013-05-11 07:01:00,
2013-05-11 01:11:00,44.0,36.0,-100.00,SSE,165,0.0,1.0,72,-99.99,,,-99.99,,2013-05-11 07:11:00,
2013-05-11 01:21:00,44.0,36.0,-100.00,SSE,165,2.0,3.0,74,-99.99,,,-99.99,,2013-05-11 07:21:00,
2013-05-11 01:31:00,44.0,37.0,-100.00,NW,325,4.0,5.0,76,-99.99,,,-99.99,,2013-05-11 07:31:00,
2013-05-11 01:42:00,44.0,38.0,-100.00,WNW,285,0.0,5.0,77,-99.99,,,-99.99,,2013-05-11 07:42:00,
2013-05-11 01:52:00,44.0,37.0,-100.00,NE,35,2.0,3.0,78,-99.99,,,-99.99,,2013-05-11 07:52:00,
2013-05-11 02:01:00,43.0,37.0,-100.00,East,95,2.0,3.0,78,-99.99,,,-99.99,,2013-05-11 08:01:00,
2013-05-11 02:12:00,42.0,36.0,-100.00,NNE,20,1.0,2.0,78,-99.99,,,-99.99,,2013-05-11 08:12:00,
2013-05-11 02:21:00,42.0,36.0,-100.00,NNE,25,0.0,2.0,78,-99.99,,,-99.99,,2013-05-11 08:21:00,
2013-05-11 02:31:00,42.0,36.0,-100.00,ESE,110,0.0,1.0,78,-99.99,,,-99.99,,2013-05-11 08:31:00,
2013-05-11 02:42:00,42.0,36.0,-100.00,East,95,2.0,3.0,78,-99.99,,,-99.99,,2013-05-11 08:42:00,
2013-05-11 02:51:00,42.0,37.0,-100.00,East,85,1.0,2.0,79,-99.99,,,-99.99,,2013-05-11 08:51:00,
2013-05-11 03:01:00,42.0,36.0,-100.00,ESE,115,2.0,2.0,79,-99.99,,,-99.99,,2013-05-11 09:01:00,
2013-05-11 03:11:00,42.0,36.0,-100.00,ENE,65,0.0,1.0,79,-99.99,,,-99.99,,2013-05-11 09:11:00,
2013-05-11 03:21:00,42.0,36.0,-100.00,ENE,65,0.0,1.0,79,-99.99,,,-99.99,,2013-05-11 09:21:00,
2013-05-11 03:32:00,41.0,35.0,-100.00,NNW,345,2.0,3.0,79,-99.99,,,-99.99,,2013-05-11 09:32:00,
2013-05-11 03:42:00,41.0,35.0,-100.00,NE,50,0.0,2.0,79,-99.99,,,-99.99,,2013-05-11 09:42:00,
2013-05-11 03:52:00,42.0,36.0,-100.00,NW,320,2.0,2.0,79,-99.99,,,-99.99,,2013-05-11 09:52:00,
2013-05-11 04:03:00,42.0,36.0,-100.00,NW,315,0.0,3.0,79,-99.99,,,-99.99,,2013-05-11 10:03:00,
2013-05-11 04:12:00,41.0,36.0,-100.00,SE,145,0.0,2.0,80,-99.99,,,-99.99,,2013-05-11 10:12:00,
2013-05-11 04:22:00,40.0,35.0,-100.00,SSE,165,2.0,3.0,81,-99.99,,,-99.99,,2013-05-11 10:22:00,
2013-05-11 04:32:00,40.0,35.0,-100.00,South,190,0.0,2.0,81,-99.99,,,-99.99,,2013-05-11 10:32:00,
2013-05-11 04:42:00,40.0,35.0,-100.00,North,10,2.0,4.0,82,-99.99,,,-99.99,,2013-05-11 10:42:00,
2013-05-11 04:52:00,40.0,35.0,-100.00,South,185,4.0,6.0,82,-99.99,,,-99.99,,2013-05-11 10:52:00,
2013-05-11 05:02:00,40.0,36.0,-100.00,SE,135,2.0,3.0,83,-99.99,,,-99.99,,2013-05-11 11:02:00,
2013-05-11 05:11:00,39.0,35.0,-100.00,SE,130,2.0,4.0,83,-99.99,,,-99.99,,2013-05-11 11:11:00,
2013-05-11 05:21:00,39.0,35.0,-100.00,ESE,105,2.0,4.0,84,-99.99,,,-99.99,,2013-05-11 11:21:00,
2013-05-11 05:31:00,39.0,35.0,-100.00,WNW,295,1.0,3.0,85,-99.99,,,-99.99,,2013-05-11 11:31:00,
2013-05-11 05:42:00,40.0,36.0,-100.00,North,355,2.0,2.0,85,-99.99,,,-99.99,,2013-05-11 11:42:00,
2013-05-11 05:51:00,39.0,35.0,-100.00,West,260,2.0,3.0,85,-99.99,,,-99.99,,2013-05-11 11:51:00,
2013-05-11 06:01:00,39.0,35.0,-100.00,WNW,290,0.0,3.0,86,-99.99,,,-99.99,,2013-05-11 12:01:00,
2013-05-11 06:11:00,38.0,35.0,-100.00,East,90,0.0,0.0,87,-99.99,,,-99.99,,2013-05-11 12:11:00,
2013-05-11 06:21:00,39.0,35.0,-100.00,North,10,2.0,2.0,87,-99.99,,,-99.99,,2013-05-11 12:21:00,
2013-05-11 06:32:00,39.0,36.0,-100.00,North,0,0.0,1.0,88,-99.99,,,-99.99,,2013-05-11 12:32:00,
2013-05-11 06:42:00,39.0,36.0,-100.00,SW,220,0.0,1.0,88,-99.99,,,-99.99,,2013-05-11 12:42:00,
2013-05-11 06:51:00,40.0,37.0,-100.00,West,260,1.0,2.0,89,-99.99,,,-99.99,,2013-05-11 12:51:00,
2013-05-11 07:01:00,41.0,38.0,-100.00,WSW,255,0.0,2.0,89,-99.99,,,-99.99,,2013-05-11 13:01:00,
2013-05-11 07:11:00,41.0,38.0,-100.00,WNW,290,0.0,4.0,89,-99.99,,,-99.99,,2013-05-11 13:11:00,
2013-05-11 07:21:00,43.0,40.0,-100.00,SW,215,0.0,1.0,89,-99.99,,,-99.99,,2013-05-11 13:21:00,
2013-05-11 07:31:00,44.0,41.0,-100.00,South,175,1.0,3.0,88,-99.99,,,-99.99,,2013-05-11 13:31:00,
2013-05-11 07:41:00,45.0,40.0,-100.00,SSE,150,3.0,4.0,83,-99.99,,,-99.99,,2013-05-11 13:41:00,
2013-05-11 07:52:00,47.0,40.0,-100.00,SE,135,2.0,4.0,74,-99.99,,,-99.99,,2013-05-11 13:52:00,
2013-05-11 08:02:00,49.0,38.0,-100.00,SSW,195,2.0,4.0,67,-99.99,,,-99.99,,2013-05-11 14:02:00,
2013-05-11 08:11:00,51.0,37.0,-100.00,SSE,150,1.0,3.0,59,-99.99,,,-99.99,,2013-05-11 14:11:00,
2013-05-11 08:21:00,51.0,35.0,-100.00,East,95,1.0,3.0,52,-99.99,,,-99.99,,2013-05-11 14:21:00,
2013-05-11 08:32:00,52.0,33.0,-100.00,NW,315,0.0,4.0,48,-99.99,,,-99.99,,2013-05-11 14:32:00,
2013-05-11 08:41:00,53.0,33.0,-100.00,WSW,240,1.0,4.0,46,-99.99,,,-99.99,,2013-05-11 14:41:00,
2013-05-11 08:51:00,54.0,33.0,-100.00,West,265,2.0,6.0,44,-99.99,,,-99.99,,2013-05-11 14:51:00,
2013-05-11 09:01:00,55.0,33.0,-100.00,North,5,2.0,6.0,43,-99.99,,,-99.99,,2013-05-11 15:01:00,
2013-05-11 09:11:00,56.0,33.0,-100.00,ESE,120,6.0,9.0,40,-99.99,,,-99.99,,2013-05-11 15:11:00,
2013-05-11 09:21:00,58.0,34.0,-100.00,East,95,3.0,6.0,39,-99.99,,,-99.99,,2013-05-11 15:21:00,
2013-05-11 09:32:00,58.0,33.0,-100.00,ESE,120,5.0,7.0,37,-99.99,,,-99.99,,2013-05-11 15:32:00,
2013-05-11 09:42:00,59.0,33.0,-100.00,West,265,0.0,7.0,36,-99.99,,,-99.99,,2013-05-11 15:42:00,
2013-05-11 09:53:00,61.0,34.0,-100.00,SSE,155,1.0,6.0,35,-99.99,,,-99.99,,2013-05-11 15:53:00,
2013-05-11 10:02:00,60.0,32.0,-100.00,NW,305,6.0,9.0,34,-99.99,,,-99.99,,2013-05-11 16:02:00,
2013-05-11 10:12:00,61.0,33.0,-100.00,NW,310,6.0,7.0,34,-99.99,,,-99.99,,2013-05-11 16:12:00,
2013-05-11 10:22:00,62.0,34.0,-100.00,WNW,300,4.0,6.0,34,-99.99,,,-99.99,,2013-05-11 16:22:00,
2013-05-11 10:33:00,62.0,34.0,-100.00,NNW,335,3.0,6.0,33,-99.99,,,-99.99,,2013-05-11 16:33:00,
2013-05-11 10:42:00,63.0,34.0,-100.00,WSW,245,2.0,6.0,33,-99.99,,,-99.99,,2013-05-11 16:42:00,
2013-05-11 10:52:00,66.0,36.0,-100.00,South,170,1.0,4.0,31,-99.99,,,-99.99,,2013-05-11 16:52:00,
2013-05-11 11:02:00,65.0,33.0,-100.00,NNW,345,1.0,5.0,30,-99.99,,,-99.99,,2013-05-11 17:02:00,
2013-05-11 11:12:00,67.0,34.0,-100.00,SSW,200,2.0,5.0,29,-99.99,,,-99.99,,2013-05-11 17:12:00,
2013-05-11 11:22:00,67.0,34.0,-100.00,SW,230,2.0,4.0,29,-99.99,,,-99.99,,2013-05-11 17:22:00,
2013-05-11 11:31:00,67.0,33.0,-100.00,West,260,2.0,5.0,28,-99.99,,,-99.99,,2013-05-11 17:31:00,
2013-05-11 11:41:00,68.0,33.0,-100.00,North,0,1.0,3.0,27,-99.99,,,-99.99,,2013-05-11 17:41:00,
2013-05-11 11:52:00,68.0,33.0,-100.00,West,265,2.0,6.0,26,-99.99,,,-99.99,,2013-05-11 17:52:00,
2013-05-11 12:01:00,71.0,35.0,-100.00,South,175,1.0,6.0,26,-99.99,,,-99.99,,2013-05-11 18:01:00,
2013-05-11 12:11:00,72.0,34.0,-100.00,South,190,1.0,4.0,25,-99.99,,,-99.99,,2013-05-11 18:11:00,
2013-05-11 12:21:00,70.0,31.0,-100.00,SW,230,2.0,7.0,23,-99.99,,,-99.99,,2013-05-11 18:21:00,
2013-05-11 12:32:00,71.0,32.0,-100.00,South,170,3.0,6.0,23,-99.99,,,-99.99,,2013-05-11 18:32:00,
2013-05-11 12:41:00,72.0,32.0,-100.00,NW,310,2.0,4.0,22,-99.99,,,-99.99,,2013-05-11 18:41:00,
2013-05-11 12:51:00,72.0,31.0,-100.00,NNW,330,2.0,6.0,22,-99.99,,,-99.99,,2013-05-11 18:51:00,
2013-05-11 13:02:00,73.0,32.0,-100.00,SSE,165,2.0,6.0,22,-99.99,,,-99.99,,2013-05-11 19:02:00,
2013-05-11 13:11:00,73.0,30.0,-100.00,South,180,3.0,7.0,20,-99.99,,,-99.99,,2013-05-11 19:11:00,
2013-05-11 13:21:00,72.0,29.0,-100.00,South,170,4.0,10.0,20,-99.99,,,-99.99,,2013-05-11 19:21:00,
2013-05-11 13:32:00,73.0,30.0,-100.00,WNW,290,7.0,12.0,20,-99.99,,,-99.99,,2013-05-11 19:32:00,
2013-05-11 13:41:00,71.0,28.0,-100.00,West,270,5.0,12.0,20,-99.99,,,-99.99,,2013-05-11 19:41:00,
2013-05-11 13:52:00,73.0,30.0,-100.00,SW,235,6.0,10.0,20,-99.99,,,-99.99,,2013-05-11 19:52:00,
2013-05-11 14:01:00,73.0,29.0,-100.00,WNW,285,11.0,15.0,20,-99.99,,,-99.99,,2013-05-11 20:01:00,
2013-05-11 14:11:00,71.0,28.0,-100.00,West,275,12.0,15.0,20,-99.99,,,-99.99,,2013-05-11 20:11:00,
2013-05-11 14:22:00,73.0,30.0,-100.00,WSW,255,7.0,15.0,20,-99.99,,,-99.99,,2013-05-11 20:22:00,
2013-05-11 14:32:00,73.0,30.0,-100.00,SW,225,6.0,13.0,20,-99.99,,,-99.99,,2013-05-11 20:32:00,
2013-05-11 14:42:00,74.0,30.0,-100.00,SW,225,4.0,10.0,19,-99.99,,,-99.99,,2013-05-11 20:42:00,
2013-05-11 14:52:00,75.0,30.0,-100.00,NNW,340,3.0,9.0,18,-99.99,,,-99.99,,2013-05-11 20:52:00,
2013-05-11 15:01:00,76.0,31.0,-100.00,SSE,155,2.0,5.0,18,-99.99,,,-99.99,,2013-05-11 21:01:00,
2013-05-11 15:11:00,74.0,29.0,-100.00,West,265,7.0,11.0,18,-99.99,,,-99.99,,2013-05-11 21:11:00,
2013-05-11 15:21:00,74.0,29.0,-100.00,WSW,250,5.0,15.0,18,-99.99,,,-99.99,,2013-05-11 21:21:00,
2013-05-11 15:33:00,75.0,30.0,-100.00,SE,125,4.0,15.0,18,-99.99,,,-99.99,,2013-05-11 21:33:00,
2013-05-11 15:43:00,75.0,29.0,-100.00,WNW,290,7.0,16.0,18,-99.99,,,-99.99,,2013-05-11 21:43:00,
2013-05-11 15:52:00,73.0,28.0,-100.00,West,280,10.0,14.0,18,-99.99,,,-99.99,,2013-05-11 21:52:00,
2013-05-11 16:02:00,73.0,28.0,-100.00,WNW,295,12.0,16.0,18,-99.99,,,-99.99,,2013-05-11 22:02:00,
2013-05-11 16:12:00,73.0,29.0,-100.00,WSW,245,4.0,14.0,19,-99.99,,,-99.99,,2013-05-11 22:12:00,
2013-05-11 16:22:00,75.0,30.0,-100.00,NNW,335,6.0,12.0,18,-99.99,,,-99.99,,2013-05-11 22:22:00,
2013-05-11 16:33:00,75.0,30.0,-100.00,North,10,6.0,8.0,18,-99.99,,,-99.99,,2013-05-11 22:33:00,
2013-05-11 16:42:00,76.0,30.0,-100.00,SW,220,2.0,7.0,18,-99.99,,,-99.99,,2013-05-11 22:42:00,
2013-05-11 16:52:00,76.0,31.0,-100.00,WSW,255,6.0,9.0,18,-99.99,,,-99.99,,2013-05-11 22:52:00,
2013-05-11 17:02:00,74.0,29.0,-100.00,WNW,285,11.0,15.0,18,-99.99,,,-99.99,,2013-05-11 23:02:00,
2013-05-11 17:11:00,71.0,28.0,-100.00,WNW,285,13.0,17.0,20,-99.99,,,-99.99,,2013-05-11 23:11:00,
2013-05-11 17:22:00,72.0,27.0,-100.00,WSW,250,14.0,34.0,18,-99.99,,,-99.99,,2013-05-11 23:22:00,
2013-05-11 17:32:00,72.0,27.0,-100.00,SW,220,7.0,17.0,18,-99.99,,,-99.99,,2013-05-11 23:32:00,
2013-05-11 17:42:00,73.0,29.0,-100.00,NW,315,9.0,14.0,19,-99.99,,,-99.99,,2013-05-11 23:42:00,
2013-05-11 17:52:00,71.0,29.0,-100.00,NNE,25,10.0,16.0,20,-99.99,,,-99.99,,2013-05-11 23:52:00,
2013-05-11 18:01:00,71.0,30.0,-100.00,NNE,20,16.0,21.0,21,-99.99,,,-99.99,,2013-05-12 00:01:00,
2013-05-11 18:11:00,72.0,30.0,-100.00,NE,40,13.0,19.0,21,-99.99,,,-99.99,,2013-05-12 00:11:00,
2013-05-11 18:21:00,72.0,30.0,-100.00,ENE,60,9.0,14.0,20,-99.99,,,-99.99,,2013-05-12 00:21:00,
2013-05-11 18:32:00,72.0,30.0,-100.00,NE,45,7.0,13.0,20,-99.99,,,-99.99,,2013-05-12 00:32:00,
2013-05-11 18:41:00,73.0,30.0,-100.00,North,0,2.0,9.0,20,-99.99,,,-99.99,,2013-05-12 00:41:00,
2013-05-11 18:52:00,71.0,29.0,-100.00,SW,235,6.0,12.0,20,-99.99,,,-99.99,,2013-05-12 00:52:00,
2013-05-11 19:01:00,70.0,30.0,-100.00,West,260,6.0,14.0,22,-99.99,,,-99.99,,2013-05-12 01:01:00,
2013-05-11 19:11:00,69.0,30.0,-100.00,WSW,245,6.0,9.0,23,-99.99,,,-99.99,,2013-05-12 01:11:00,
2013-05-11 19:21:00,68.0,30.0,-100.00,SW,235,7.0,12.0,24,-99.99,,,-99.99,,2013-05-12 01:21:00,
2013-05-11 19:31:00,67.0,29.0,-100.00,SW,235,9.0,12.0,24,-99.99,,,-99.99,,2013-05-12 01:31:00,
2013-05-11 19:41:00,67.0,30.0,-100.00,WSW,240,4.0,11.0,24,-99.99,,,-99.99,,2013-05-12 01:41:00,
2013-05-11 19:52:00,67.0,30.0,-100.00,SW,215,10.0,13.0,24,-99.99,,,-99.99,,2013-05-12 01:52:00,
2013-05-11 20:01:00,66.0,30.0,-100.00,SW,215,11.0,14.0,25,-99.99,,,-99.99,,2013-05-12 02:01:00,
2013-05-11 20:11:00,65.0,29.0,-100.00,SSW,210,7.0,12.0,26,-99.99,,,-99.99,,2013-05-12 02:11:00,
2013-05-11 20:22:00,65.0,30.0,-100.00,NW,325,2.0,9.0,27,-99.99,,,-99.99,,2013-05-12 02:22:00,
2013-05-11 20:31:00,63.0,30.0,-100.00,NE,45,4.0,6.0,28,-99.99,,,-99.99,,2013-05-12 02:31:00,
2013-05-11 20:41:00,62.0,31.0,-100.00,East,85,4.0,6.0,29,-99.99,,,-99.99,,2013-05-12 02:41:00,
2013-05-11 20:52:00,61.0,31.0,-100.00,ESE,110,1.0,3.0,31,-99.99,,,-99.99,,2013-05-12 02:52:00,
2013-05-11 21:01:00,60.0,32.0,-100.00,NE,40,2.0,3.0,34,-99.99,,,-99.99,,2013-05-12 03:01:00,
2013-05-11 21:11:00,59.0,32.0,-100.00,NE,35,4.0,4.0,36,-99.99,,,-99.99,,2013-05-12 03:11:00,
2013-05-11 21:21:00,57.0,33.0,-100.00,East,90,4.0,4.0,39,-99.99,,,-99.99,,2013-05-12 03:21:00,
2013-05-11 21:32:00,57.0,33.0,-100.00,East,90,2.0,4.0,39,-99.99,,,-99.99,,2013-05-12 03:32:00,
2013-05-11 21:42:00,56.0,33.0,-100.00,East,85,4.0,4.0,42,-99.99,,,-99.99,,2013-05-12 03:42:00,
2013-05-11 21:53:00,55.0,35.0,-100.00,East,85,6.0,9.0,45,-99.99,,,-99.99,,2013-05-12 03:53:00,
2013-05-11 22:02:00,-999.0,-99.9,-100.00,SSE,155,5.0,8.0,44,-99.99,,,-99.99,,2013-05-12 04:02:00,
2013-05-11 22:12:00,55.0,35.0,-100.00,SSW,195,4.0,8.0,44,-99.99,,,-99.99,,2013-05-12 04:12:00,
2013-05-11 22:22:00,56.0,34.0,-100.00,ENE,65,4.0,4.0,44,-99.99,,,-99.99,,2013-05-12 04:22:00,
2013-05-11 22:33:00,55.0,34.0,-100.00,East,95,2.0,4.0,43,-99.99,,,-99.99,,2013-05-12 04:33:00,
2013-05-11 22:43:00,55.0,34.0,-100.00,South,185,1.0,4.0,44,-99.99,,,-99.99,,2013-05-12 04:43:00,
2013-05-11 22:52:00,53.0,35.0,-100.00,ENE,60,2.0,4.0,49,-99.99,,,-99.99,,2013-05-12 04:52:00,
2013-05-11 23:02:00,52.0,35.0,-100.00,NE,55,2.0,3.0,50,-99.99,,,-99.99,,2013-05-12 05:02:00,
2013-05-11 23:11:00,52.0,35.0,-100.00,NNW,330,2.0,2.0,51,-99.99,,,-99.99,,2013-05-12 05:11:00,
2013-05-11 23:21:00,51.0,35.0,-100.00,ENE,75,2.0,4.0,52,-99.99,,,-99.99,,2013-05-12 05:21:00,
2013-05-11 23:31:00,51.0,36.0,-100.00,SSE,165,1.0,4.0,55,-99.99,,,-99.99,,2013-05-12 05:31:00,
2013-05-11 23:42:00,51.0,37.0,-100.00,NNE,25,1.0,2.0,57,-99.99,,,-99.99,,2013-05-12 05:42:00,
2013-05-11 23:51:00,51.0,37.0,-100.00,NE,35,1.0,2.0,59,-99.99,,,-99.99,,2013-05-12 05:51:00,